Oakhurst, California
Current Conditions -  °F | °C
As of 12:06 PM on Wednesday 28 Jan 2015 (Local Time) from KMAE Reporting Station
Haze Haze  
Wind Chill: 49°   Ceiling: 200
Heat Index: 49°   Visibility: 1mi
Dew Point: 47°   Wind: 0mph
Humidity: 93%   Direction: NA
Pressure: 30.24"   Gusts: NA
Location:  37.33°N, 119.65°W
Report Text: KMAE 282006Z AUTO 00000KT 1SM BR OVC002 09/08 A3024 RMK AO2 T00940083
Loading
Personal Weather Stations






























Interactive Weather Map New forecast layout! Learn more

10-Day Weather Forecast

Advertisements
Track Severe Weather on mobile